Time;durP1;ratioP1;P1;durP2;ratioP2;P2;SDS_P1;SDS_P2;PMS_P1;PMS_P2;Temp;Humidity;BMP_temperature;BMP_pressure;BME280_temperature;BME280_humidity;BME280_pressure;Samples;Min_cycle;Max_cycle;Signal;HPM_P1;HPM_P2
2022/03/05 00:00:58;;;;;;;;;;;0.30;99.90;;;;;;5033788;28;20041;-51
2022/03/05 00:03:25;;;;;;;18.35;11.40;;;0.30;99.90;;;;;;5033141;28;19931;-52
2022/03/05 00:05:50;;;;;;;16.50;11.00;;;0.30;99.90;;;;;;5032608;28;20107;-53
2022/03/05 00:08:16;;;;;;;15.97;10.03;;;0.30;99.90;;;;;;5032592;28;20042;-52
2022/03/05 00:10:42;;;;;;;18.30;10.67;;;0.30;99.90;;;;;;5033229;28;20107;-54
2022/03/05 00:13:08;;;;;;;16.83;11.10;;;0.30;99.90;;;;;;5033317;28;20045;-51
2022/03/05 00:15:33;;;;;;;15.82;10.73;;;0.30;99.90;;;;;;5033548;28;20068;-50
2022/03/05 00:17:59;;;;;;;21.07;11.50;;;0.20;99.90;;;;;;5014782;28;20498;-53
2022/03/05 00:20:25;;;;;;;17.30;11.23;;;0.20;99.90;;;;;;5033678;28;20045;-54
2022/03/05 00:22:52;;;;;;;15.77;10.52;;;0.20;99.90;;;;;;5033041;28;20041;-53
2022/03/05 00:25:19;;;;;;;16.00;10.63;;;0.20;99.90;;;;;;5015215;28;20045;-53
2022/03/05 00:27:45;;;;;;;17.67;10.80;;;0.20;99.90;;;;;;5033028;28;20037;-53
2022/03/05 00:30:11;;;;;;;16.30;10.80;;;0.20;99.90;;;;;;5032390;28;20046;-53
2022/03/05 00:32:37;;;;;;;15.00;10.60;;;0.10;99.90;;;;;;5032840;28;20044;-55
2022/03/05 00:35:03;;;;;;;15.70;10.45;;;0.10;99.90;;;;;;5014523;28;20033;-52
2022/03/05 00:37:29;;;;;;;18.45;11.57;;;0.10;99.90;;;;;;5032848;28;20049;-53
2022/03/05 00:39:54;;;;;;;19.63;10.93;;;0.20;99.90;;;;;;5032541;28;20041;-53
2022/03/05 00:42:20;;;;;;;16.70;10.10;;;0.20;99.90;;;;;;5033007;28;20076;-54
2022/03/05 00:44:45;;;;;;;16.37;10.07;;;0.20;99.90;;;;;;5032456;28;20046;-51
2022/03/05 00:47:11;;;;;;;18.73;10.67;;;0.20;99.90;;;;;;5032908;28;20037;-53
2022/03/05 00:49:36;;;;;;;19.60;10.37;;;0.20;99.90;;;;;;5032165;28;20510;-50
2022/03/05 00:52:03;;;;;;;17.07;11.23;;;0.20;99.90;;;;;;5032704;28;20029;-54
2022/03/05 00:54:28;;;;;;;16.92;10.95;;;0.20;99.90;;;;;;5031473;28;20045;-51
2022/03/05 00:56:54;;;;;;;17.13;10.97;;;0.20;99.90;;;;;;5031902;28;20041;-53
2022/03/05 00:59:20;;;;;;;17.87;10.50;;;0.10;99.90;;;;;;5032303;28;20095;-54
2022/03/05 01:01:45;;;;;;;14.07;9.53;;;0.10;99.90;;;;;;5032635;28;20103;-52
2022/03/05 01:04:11;;;;;;;17.47;11.83;;;0.10;99.90;;;;;;5031911;28;20072;-54
2022/03/05 01:06:36;;;;;;;19.50;9.33;;;0.10;99.90;;;;;;5032043;28;20045;-53
2022/03/05 01:09:04;;;;;;;16.10;10.07;;;0.10;99.90;;;;;;5032024;28;20034;-53
2022/03/05 01:11:31;;;;;;;18.80;10.57;;;0.10;99.90;;;;;;5032400;28;20124;-53
2022/03/05 01:13:56;;;;;;;20.70;11.95;;;0.10;99.90;;;;;;5031226;28;21413;-52
2022/03/05 01:16:22;;;;;;;16.42;9.45;;;0.10;99.90;;;;;;5012165;28;20033;-54
2022/03/05 01:18:48;;;;;;;19.50;9.67;;;0.10;99.90;;;;;;5032146;28;20121;-54
2022/03/05 01:21:14;;;;;;;19.63;10.65;;;0.10;99.90;;;;;;5031723;28;20045;-54
2022/03/05 01:23:39;;;;;;;18.27;11.02;;;0.10;99.90;;;;;;5031561;28;20033;-52
2022/03/05 01:26:05;;;;;;;15.13;10.07;;;0.10;99.90;;;;;;5013936;28;20087;-54
2022/03/05 01:28:31;;;;;;;14.97;9.40;;;0.10;99.90;;;;;;5032056;28;20767;-53
2022/03/05 01:30:56;;;;;;;16.98;9.65;;;0.10;99.90;;;;;;5031961;28;20041;-53
2022/03/05 01:33:22;;;;;;;15.10;10.57;;;0.10;99.90;;;;;;5031719;28;20052;-54
2022/03/05 01:35:48;;;;;;;17.13;9.10;;;0.10;99.90;;;;;;5031377;28;20048;-54
2022/03/05 01:38:15;;;;;;;17.52;10.25;;;0.10;99.90;;;;;;5031711;28;20560;-53
2022/03/05 01:40:41;;;;;;;18.08;11.50;;;0.20;99.90;;;;;;5031348;28;20041;-53
2022/03/05 01:43:08;;;;;;;16.73;9.70;;;0.10;99.90;;;;;;5013528;28;20041;-53
2022/03/05 01:45:34;;;;;;;;;;;0.10;99.90;;;;;;5031719;28;20492;-54
2022/03/05 01:47:59;;;;;;;17.20;9.38;;;0.10;99.90;;;;;;5031728;28;19925;-54
2022/03/05 01:50:25;;;;;;;17.43;9.33;;;0.10;99.90;;;;;;5031170;28;20037;-54
2022/03/05 01:52:51;;;;;;;14.77;9.07;;;0.00;99.90;;;;;;5031051;28;20033;-51
2022/03/05 01:55:17;;;;;;;15.63;8.35;;;0.10;99.90;;;;;;5030705;28;20033;-51
2022/03/05 01:57:43;;;;;;;17.30;9.83;;;0.00;99.90;;;;;;5026047;28;20399;-53
2022/03/05 02:00:11;;;;;;;15.87;9.07;;;0.00;99.90;;;;;;5027405;28;20032;-49
2022/03/05 02:02:36;;;;;;;12.68;8.55;;;0.00;99.90;;;;;;5023699;28;20300;-52
2022/03/05 02:05:03;;;;;;;15.17;8.93;;;0.00;99.90;;;;;;5026894;28;20300;-48
2022/03/05 02:07:29;;;;;;;11.90;8.45;;;0.00;99.90;;;;;;5030583;28;20511;-54
2022/03/05 02:09:54;;;;;;;15.75;9.13;;;0.00;99.90;;;;;;5030532;28;20065;-54
2022/03/05 02:12:27;;;;;;;12.83;8.33;;;0.00;99.90;;;;;;5031620;28;20041;-52
2022/03/05 02:14:53;;;;;;;14.73;8.40;;;0.00;99.90;;;;;;5026370;28;20060;-52
2022/03/05 02:17:18;;;;;;;16.57;8.93;;;0.00;99.90;;;;;;5030717;28;20037;-48
2022/03/05 02:19:44;;;;;;;11.17;7.33;;;0.00;99.90;;;;;;5030349;28;20041;-48
2022/03/05 02:22:10;;;;;;;15.27;9.60;;;0.00;99.90;;;;;;5030519;28;20091;-49
2022/03/05 02:24:38;;;;;;;14.30;8.52;;;0.00;99.90;;;;;;5029924;28;20041;-53
2022/03/05 02:27:05;;;;;;;13.77;8.80;;;0.00;99.90;;;;;;5029581;28;20402;-48
2022/03/05 02:29:31;;;;;;;14.90;9.15;;;0.00;99.90;;;;;;5030788;28;20044;-48
2022/03/05 02:31:57;;;;;;;13.05;9.32;;;0.00;99.90;;;;;;5030855;28;20034;-48
2022/03/05 02:34:23;;;;;;;18.07;8.83;;;0.00;99.90;;;;;;5029824;28;20402;-50
2022/03/05 02:36:49;;;;;;;13.45;8.50;;;0.00;99.90;;;;;;5029973;28;20056;-48
2022/03/05 02:39:14;;;;;;;14.35;9.23;;;0.00;99.90;;;;;;5030806;28;20037;-48
2022/03/05 02:41:40;;;;;;;12.50;8.50;;;-0.10;99.90;;;;;;5029976;28;20518;-48
2022/03/05 02:44:06;;;;;;;17.38;9.48;;;-0.10;99.90;;;;;;5030764;28;20045;-51
2022/03/05 02:46:34;;;;;;;13.73;8.60;;;-0.10;99.90;;;;;;5029567;28;20033;-48
2022/03/05 02:49:00;;;;;;;11.75;8.25;;;-0.10;99.90;;;;;;5030338;28;20068;-51
2022/03/05 02:51:26;;;;;;;13.05;8.32;;;-0.10;99.90;;;;;;5012019;28;20043;-48
2022/03/05 02:53:52;;;;;;;14.80;9.37;;;-0.20;99.90;;;;;;5030782;28;20116;-48
2022/03/05 02:56:17;;;;;;;19.77;9.80;;;-0.20;99.90;;;;;;5012115;28;20048;-48
2022/03/05 02:58:43;;;;;;;16.00;9.73;;;-0.20;99.90;;;;;;5030183;28;20499;-51
2022/03/05 03:01:08;;;;;;;18.27;8.03;;;-0.20;99.90;;;;;;5029891;28;20041;-49
2022/03/05 03:03:34;;;;;;;16.03;8.97;;;-0.20;99.90;;;;;;5030112;28;20088;-52
2022/03/05 03:06:00;;;;;;;17.33;9.18;;;-0.20;99.90;;;;;;5029913;28;20083;-48
2022/03/05 03:08:26;;;;;;;16.33;8.17;;;-0.20;99.90;;;;;;5029990;28;20029;-48
2022/03/05 03:10:51;;;;;;;14.10;8.88;;;-0.20;99.90;;;;;;5029815;28;20069;-48
2022/03/05 03:13:17;;;;;;;15.33;9.87;;;-0.20;99.90;;;;;;5030055;28;20045;-52
2022/03/05 03:15:42;;;;;;;15.77;9.40;;;-0.20;99.90;;;;;;5029697;28;20113;-49
2022/03/05 03:18:08;;;;;;;19.47;9.77;;;-0.20;99.90;;;;;;5029828;28;20041;-49
2022/03/05 03:20:34;;;;;;;15.20;9.40;;;-0.20;99.90;;;;;;5029392;28;20057;-48
2022/03/05 03:22:59;;;;;;;19.43;9.97;;;-0.20;99.90;;;;;;5029547;28;20045;-47
2022/03/05 03:25:25;;;;;;;17.50;9.13;;;-0.20;99.90;;;;;;5029294;28;20044;-49
2022/03/05 03:27:50;;;;;;;15.80;10.33;;;-0.30;99.90;;;;;;5029529;28;20053;-51
2022/03/05 03:30:18;;;;;;;19.17;9.83;;;-0.30;99.90;;;;;;5029125;28;20391;-48
2022/03/05 03:32:44;;;;;;;18.83;9.75;;;-0.30;99.90;;;;;;5029028;28;20079;-48
2022/03/05 03:35:12;;;;;;;17.25;10.18;;;-0.30;99.90;;;;;;5029632;28;20060;-50
2022/03/05 03:37:38;;;;;;;19.27;10.68;;;-0.30;99.90;;;;;;5030141;28;20068;-49
2022/03/05 03:40:06;;;;;;;14.75;9.63;;;-0.30;99.90;;;;;;5029908;28;20038;-49
2022/03/05 03:42:32;;;;;;;19.63;10.45;;;-0.30;99.90;;;;;;5029439;28;20072;-48
2022/03/05 03:44:57;;;;;;;16.97;9.70;;;-0.30;99.90;;;;;;5029863;28;20114;-50
2022/03/05 03:47:24;;;;;;;18.13;10.70;;;-0.30;99.90;;;;;;5012255;28;20052;-48
2022/03/05 03:49:50;;;;;;;18.25;9.90;;;-0.30;99.90;;;;;;5029686;28;20041;-51
2022/03/05 03:52:16;;;;;;;20.52;10.55;;;-0.30;99.90;;;;;;5029781;28;20471;-50
2022/03/05 03:54:43;;;;;;;18.85;9.98;;;-0.40;99.90;;;;;;5029214;28;20037;-48
2022/03/05 03:57:09;;;;;;;15.75;9.02;;;-0.40;99.90;;;;;;5029681;28;20127;-49
2022/03/05 03:59:35;;;;;;;17.45;9.73;;;-0.40;99.90;;;;;;5029881;28;20096;-48
2022/03/05 04:02:04;;;;;;;14.83;8.93;;;-0.40;99.90;;;;;;5029466;28;20033;-51
2022/03/05 04:04:30;;;;;;;19.60;11.48;;;-0.40;99.90;;;;;;5030137;28;20044;-53
2022/03/05 04:09:40;;;;;;;15.65;9.52;;;-0.50;99.90;;;;;;5029964;28;20069;-49
2022/03/05 04:12:06;;;;;;;18.67;10.67;;;-0.50;99.90;;;;;;5011726;28;20069;-48
2022/03/05 04:14:31;;;;;;;20.25;10.63;;;-0.50;99.90;;;;;;5029256;28;20048;-52
2022/03/05 04:16:57;;;;;;;18.53;10.00;;;-0.50;99.90;;;;;;5029084;28;20041;-51
2022/03/05 04:19:23;;;;;;;16.40;10.57;;;-0.50;99.90;;;;;;5011955;28;20045;-52
2022/03/05 04:21:48;;;;;;;23.47;11.67;;;-0.50;99.90;;;;;;5029062;28;20083;-48
2022/03/05 04:24:14;;;;;;;17.50;9.97;;;-0.60;99.90;;;;;;5029451;28;20052;-49
2022/03/05 04:26:39;;;;;;;18.77;11.10;;;-0.60;99.90;;;;;;5029224;28;20133;-49
2022/03/05 04:29:05;;;;;;;17.93;9.80;;;-0.60;99.90;;;;;;5029222;28;20113;-48
2022/03/05 04:31:31;;;;;;;19.02;10.52;;;-0.60;99.90;;;;;;5014796;28;20107;-50
2022/03/05 04:33:57;;;;;;;18.43;9.57;;;-0.60;99.90;;;;;;5033224;28;20037;-48
2022/03/05 04:36:22;;;;;;;17.17;10.73;;;-0.70;99.90;;;;;;5032710;28;20689;-50
2022/03/05 04:38:48;;;;;;;22.63;11.13;;;-0.70;99.90;;;;;;5029331;28;20046;-48
2022/03/05 04:41:14;;;;;;;18.92;10.02;;;-0.70;99.90;;;;;;5013172;28;20046;-49
2022/03/05 04:43:40;;;;;;;18.17;10.50;;;-0.70;99.90;;;;;;5030487;28;20513;-49
2022/03/05 04:46:05;;;;;;;18.67;10.30;;;-0.70;99.90;;;;;;5032806;28;20053;-48
2022/03/05 04:48:31;;;;;;;17.27;8.83;;;-0.70;99.90;;;;;;5032435;28;20037;-48
2022/03/05 04:50:56;;;;;;;20.47;10.47;;;-0.70;99.90;;;;;;5032667;28;20045;-49
2022/03/05 04:53:22;;;;;;;16.67;10.70;;;-0.80;99.90;;;;;;5032403;28;20041;-51
2022/03/05 04:55:49;;;;;;;17.90;9.73;;;-0.70;99.90;;;;;;5032181;28;20049;-49
2022/03/05 04:58:15;;;;;;;18.20;9.82;;;-0.70;99.90;;;;;;5031690;28;20092;-48
2022/03/05 05:00:41;;;;;;;19.75;10.93;;;-0.80;99.90;;;;;;5032190;28;20503;-49
2022/03/05 05:03:07;;;;;;;15.63;9.93;;;-0.80;99.90;;;;;;5032218;28;20049;-50
2022/03/05 05:05:33;;;;;;;15.23;8.52;;;-0.80;99.90;;;;;;5032333;28;20029;-51
2022/03/05 05:07:59;;;;;;;17.20;9.50;;;-0.70;99.90;;;;;;5032311;28;20064;-48
2022/03/05 05:10:24;;;;;;;15.55;9.40;;;-0.80;99.90;;;;;;5031906;28;20120;-50
2022/03/05 05:12:50;;;;;;;17.13;9.93;;;-0.80;99.90;;;;;;5031753;28;20120;-53
2022/03/05 05:15:16;;;;;;;16.43;9.37;;;-0.80;99.90;;;;;;5031895;28;20128;-48
2022/03/05 05:17:41;;;;;;;18.75;10.63;;;-0.80;99.90;;;;;;5031942;28;20029;-51
2022/03/05 05:20:08;;;;;;;17.60;10.00;;;-0.80;99.90;;;;;;5031943;28;20037;-53
2022/03/05 05:22:34;;;;;;;15.75;8.80;;;-0.80;99.90;;;;;;5031339;28;20120;-50
2022/03/05 05:25:01;;;;;;;17.63;10.13;;;-0.70;99.90;;;;;;5031252;28;20048;-52
2022/03/05 05:27:27;;;;;;;17.60;9.68;;;-0.80;99.90;;;;;;5032100;28;20088;-51
2022/03/05 05:29:52;;;;;;;19.08;9.82;;;-0.80;99.90;;;;;;5031514;28;20037;-50
2022/03/05 05:32:18;;;;;;;17.20;9.20;;;-0.80;99.90;;;;;;5032324;28;20049;-48
2022/03/05 05:34:44;;;;;;;15.02;9.43;;;-0.70;99.90;;;;;;5031357;28;20052;-49
2022/03/05 05:37:10;;;;;;;16.58;10.27;;;-0.80;99.90;;;;;;5031805;28;20076;-48
2022/03/05 05:39:36;;;;;;;18.63;9.95;;;-0.80;99.90;;;;;;5031627;28;20388;-49
2022/03/05 05:42:03;;;;;;;20.27;11.02;;;-0.80;99.90;;;;;;5030355;28;20052;-49
2022/03/05 05:44:29;;;;;;;18.88;11.65;;;-0.80;99.90;;;;;;5031074;28;20041;-48
2022/03/05 05:46:54;;;;;;;20.63;10.77;;;-0.80;99.90;;;;;;5031377;28;20111;-48
2022/03/05 05:49:20;;;;;;;20.30;10.47;;;-0.80;99.90;;;;;;5031323;28;20045;-48
2022/03/05 05:51:46;;;;;;;18.93;10.37;;;-0.80;99.90;;;;;;5013756;28;20544;-51
2022/03/05 05:54:11;;;;;;;17.87;10.40;;;-0.80;99.90;;;;;;5031435;28;20280;-51
2022/03/05 05:56:37;;;;;;;20.53;10.60;;;-0.90;99.90;;;;;;5030766;28;20077;-50
2022/03/05 05:59:04;;;;;;;16.17;10.00;;;-0.90;99.90;;;;;;5030106;28;20119;-52
2022/03/05 06:01:30;;;;;;;15.18;8.65;;;-0.90;99.90;;;;;;5031742;28;20283;-51
2022/03/05 06:03:56;;;;;;;14.67;9.10;;;-0.90;99.90;;;;;;5031547;28;20042;-53
2022/03/05 06:06:22;;;;;;;14.73;8.47;;;-1.00;99.90;;;;;;5031353;28;20586;-52
2022/03/05 06:08:47;;;;;;;18.52;9.73;;;-1.00;99.90;;;;;;5031264;28;20041;-48
2022/03/05 06:11:13;;;;;;;18.03;11.00;;;-1.00;99.90;;;;;;5031250;28;20041;-49
2022/03/05 06:13:39;;;;;;;16.95;9.65;;;-1.00;99.90;;;;;;5031343;28;20037;-48
2022/03/05 06:16:06;;;;;;;16.43;9.73;;;-1.00;99.90;;;;;;5013540;28;20040;-52
2022/03/05 06:18:32;;;;;;;15.85;9.13;;;-1.00;99.90;;;;;;5031100;28;20041;-47
2022/03/05 06:20:57;;;;;;;17.57;10.50;;;-1.00;99.90;;;;;;5031103;28;20415;-50
2022/03/05 06:23:23;;;;;;;16.33;9.33;;;-1.00;99.90;;;;;;5012745;28;20076;-49
2022/03/05 06:25:50;;;;;;;13.90;8.70;;;-0.90;99.90;;;;;;5030384;28;20410;-50
2022/03/05 06:28:16;;;;;;;16.45;8.95;;;-0.80;99.90;;;;;;5030837;28;20077;-50
2022/03/05 06:30:42;;;;;;;16.20;9.20;;;-0.80;99.90;;;;;;5013112;28;20073;-53
2022/03/05 06:33:07;;;;;;;18.13;9.37;;;-0.60;99.90;;;;;;5030815;28;20045;-49
2022/03/05 06:35:33;;;;;;;21.53;19.50;;;-0.40;99.90;;;;;;5030741;28;20439;-49
2022/03/05 06:37:59;;;;;;;17.17;15.40;;;-0.20;99.90;;;;;;5030810;28;20053;-54
2022/03/05 06:40:24;;;;;;;14.67;12.87;;;0.00;99.90;;;;;;5029551;28;20506;-49
2022/03/05 06:42:50;;;;;;;14.80;12.95;;;0.30;99.90;;;;;;5030824;28;20048;-51
2022/03/05 06:45:16;;;;;;;15.20;10.60;;;0.60;99.90;;;;;;5030117;28;20072;-52
2022/03/05 06:47:42;;;;;;;17.27;9.63;;;0.90;99.90;;;;;;5031015;28;20083;-51
2022/03/05 06:50:10;;;;;;;12.10;9.40;;;1.20;99.90;;;;;;5029886;28;20498;-50
2022/03/05 06:52:35;;;;;;;12.63;8.20;;;1.60;99.90;;;;;;5012473;28;20277;-53
2022/03/05 06:55:03;;;;;;;12.53;8.93;;;1.90;99.90;;;;;;5029246;28;20033;-53
2022/03/05 06:57:29;;;;;;;13.65;9.23;;;2.30;99.90;;;;;;5030628;28;20033;-52
2022/03/05 06:59:55;;;;;;;16.73;10.10;;;2.60;99.90;;;;;;5029933;28;20037;-53
2022/03/05 07:02:21;;;;;;;11.83;8.20;;;3.00;99.90;;;;;;5030014;28;20045;-52
2022/03/05 07:04:46;;;;;;;18.55;9.27;;;3.40;99.90;;;;;;5029944;28;20038;-52
2022/03/05 07:07:12;;;;;;;13.73;9.03;;;3.70;99.90;;;;;;5030327;28;20041;-49
2022/03/05 07:09:37;;;;;;;14.47;8.57;;;4.00;99.90;;;;;;5011912;28;20120;-52
2022/03/05 07:12:04;;;;;;;15.30;9.17;;;4.30;99.80;;;;;;5012220;28;20124;-51
2022/03/05 07:14:29;;;;;;;14.30;8.10;;;4.60;99.00;;;;;;5029961;28;20052;-50
2022/03/05 07:16:55;;;;;;;12.47;8.37;;;4.80;98.20;;;;;;5030376;28;20037;-49
2022/03/05 07:19:21;;;;;;;11.93;7.68;;;5.10;97.10;;;;;;5029923;28;20038;-53
2022/03/05 07:21:46;;;;;;;15.03;8.83;;;5.30;96.90;;;;;;5029556;28;20388;-51
2022/03/05 07:24:12;;;;;;;12.33;8.47;;;5.50;95.70;;;;;;5012110;28;20120;-51
2022/03/05 07:26:38;;;;;;;11.10;8.23;;;5.30;94.60;;;;;;5029729;28;20388;-50
2022/03/05 07:29:03;;;;;;;16.10;10.13;;;5.00;95.00;;;;;;5030031;28;20362;-53
2022/03/05 07:31:29;;;;;;;15.27;8.50;;;4.70;95.20;;;;;;5029662;28;20399;-51
2022/03/05 07:33:54;;;;;;;17.53;9.63;;;4.50;95.90;;;;;;5029631;28;20391;-49
2022/03/05 07:36:20;;;;;;;18.27;9.83;;;4.20;96.40;;;;;;5029818;28;20064;-50
2022/03/05 07:38:46;;;;;;;16.63;9.23;;;4.00;97.30;;;;;;5029598;28;20041;-53
2022/03/05 07:41:12;;;;;;;16.10;9.63;;;3.90;97.70;;;;;;5029850;28;20380;-50
2022/03/05 07:43:39;;;;;;;18.77;9.75;;;3.80;98.00;;;;;;5029786;28;20406;-50
2022/03/05 07:46:04;;;;;;;;;;;3.60;98.30;;;;;;5029748;28;20045;-53
2022/03/05 07:48:30;;;;;;;15.38;9.27;;;3.50;98.70;;;;;;5030244;28;19943;-49
2022/03/05 07:50:59;;;;;;;15.55;9.88;;;3.40;99.30;;;;;;5012007;28;20037;-49
2022/03/05 07:53:26;;;;;;;12.68;8.55;;;3.40;99.90;;;;;;5029459;28;20494;-52
2022/03/05 07:55:51;;;;;;;14.68;9.68;;;3.40;99.90;;;;;;5029342;28;20045;-52
2022/03/05 07:58:17;;;;;;;15.07;10.07;;;3.30;99.90;;;;;;5029802;28;20042;-52
2022/03/05 08:00:42;;;;;;;17.80;10.07;;;3.40;99.90;;;;;;5029603;28;20041;-49
2022/03/05 08:03:08;;;;;;;17.37;10.13;;;3.40;99.90;;;;;;5030252;28;20056;-54
2022/03/05 08:05:33;;;;;;;17.90;9.67;;;3.40;99.90;;;;;;5031831;28;20037;-52
2022/03/05 08:07:59;;;;;;;19.83;9.80;;;3.30;99.90;;;;;;5032939;28;20037;-50
2022/03/05 08:10:24;;;;;;;16.40;9.67;;;3.40;99.90;;;;;;5032975;28;20030;-53
2022/03/05 08:12:50;;;;;;;16.50;9.53;;;3.30;99.90;;;;;;5033420;28;20395;-49
2022/03/05 08:15:16;;;;;;;19.83;11.13;;;3.20;99.90;;;;;;5032495;28;20162;-52
2022/03/05 08:17:58;;;;;;;16.13;10.30;;;3.20;99.90;;;;;;5033373;28;20037;-49
2022/03/05 08:20:26;;;;;;;17.00;11.07;;;3.20;99.90;;;;;;5014503;28;20133;-48
2022/03/05 08:22:52;;;;;;;17.88;11.70;;;3.10;99.90;;;;;;5015452;28;20128;-48
2022/03/05 08:25:18;;;;;;;20.73;12.75;;;3.10;99.90;;;;;;5014910;28;20120;-48
2022/03/05 08:27:43;;;;;;;17.80;11.93;;;3.00;99.90;;;;;;5031120;28;20313;-49
2022/03/05 08:30:10;;;;;;;24.13;13.80;;;3.00;99.90;;;;;;5031080;28;20518;-50
2022/03/05 08:32:36;;;;;;;19.85;13.35;;;3.00;99.90;;;;;;5030496;28;20077;-50
2022/03/05 08:35:02;;;;;;;17.73;12.82;;;2.90;99.90;;;;;;5032239;28;20069;-51
2022/03/05 08:37:28;;;;;;;21.70;14.48;;;2.90;99.90;;;;;;5033263;28;20048;-49
2022/03/05 08:39:54;;;;;;;22.13;14.33;;;2.90;99.90;;;;;;5033110;28;20041;-49
2022/03/05 08:42:19;;;;;;;26.20;13.88;;;2.90;99.90;;;;;;5032987;28;20120;-54
2022/03/05 08:44:45;;;;;;;23.55;13.15;;;2.90;99.90;;;;;;5032343;28;20124;-49
2022/03/05 08:47:11;;;;;;;45.23;14.87;;;3.00;99.90;;;;;;5032912;28;20033;-51
2022/03/05 08:49:36;;;;;;;30.07;13.90;;;3.10;99.90;;;;;;5032329;28;20038;-51
2022/03/05 08:52:02;;;;;;;46.07;14.53;;;3.20;99.90;;;;;;5032673;28;20041;-48
2022/03/05 08:54:28;;;;;;;37.08;14.52;;;3.30;99.90;;;;;;5032837;28;20072;-49
2022/03/05 08:56:53;;;;;;;38.50;14.57;;;3.30;99.90;;;;;;5032476;28;20469;-48
2022/03/05 08:59:19;;;;;;;35.43;13.43;;;3.40;99.90;;;;;;5032796;28;20037;-51
2022/03/05 09:01:45;;;;;;;38.97;13.63;;;3.40;99.90;;;;;;5032472;28;20042;-53
2022/03/05 09:04:11;;;;;;;28.13;13.80;;;3.50;99.90;;;;;;5031991;28;20177;-53
2022/03/05 09:06:38;;;;;;;25.23;12.43;;;3.60;99.90;;;;;;5032273;28;20033;-48
2022/03/05 09:09:04;;;;;;;34.47;14.65;;;3.70;99.90;;;;;;5032669;28;20038;-53
2022/03/05 09:11:30;;;;;;;;;;;3.70;99.90;;;;;;5032533;28;20034;-48
2022/03/05 09:13:55;;;;;;;20.15;12.32;;;3.80;99.90;;;;;;5032690;28;19924;-49
2022/03/05 09:16:21;;;;;;;33.67;14.70;;;3.80;99.90;;;;;;5032155;28;20037;-49
2022/03/05 09:18:46;;;;;;;25.43;15.03;;;3.90;99.90;;;;;;5031870;28;20498;-54
2022/03/05 09:21:12;;;;;;;25.13;15.63;;;4.00;99.90;;;;;;5031233;28;20049;-54
2022/03/05 09:23:38;;;;;;;24.92;15.55;;;4.00;99.90;;;;;;5031985;28;20120;-50
2022/03/05 09:26:04;;;;;;;26.10;14.77;;;4.00;99.90;;;;;;5028808;28;20458;-53
2022/03/05 09:28:29;;;;;;;20.90;13.80;;;4.00;99.90;;;;;;5031849;28;20547;-51
2022/03/05 09:30:55;;;;;;;24.30;13.97;;;4.00;99.90;;;;;;5031709;28;20068;-51
2022/03/05 09:33:22;;;;;;;25.45;14.32;;;4.00;99.90;;;;;;5013591;28;20353;-50
2022/03/05 09:35:49;;;;;;;26.25;14.35;;;4.10;99.90;;;;;;5031808;28;20106;-50
2022/03/05 09:38:15;;;;;;;23.60;14.57;;;4.20;99.90;;;;;;5031937;28;20041;-55
2022/03/05 09:40:41;;;;;;;25.52;15.70;;;4.30;99.90;;;;;;5030890;28;20037;-49
2022/03/05 09:43:07;;;;;;;27.05;16.00;;;4.30;99.90;;;;;;5030866;28;20544;-50
2022/03/05 09:45:33;;;;;;;24.70;13.70;;;4.30;99.90;;;;;;5030873;28;20132;-53
2022/03/05 09:47:59;;;;;;;25.27;15.98;;;4.30;99.90;;;;;;5030406;28;20029;-49
2022/03/05 09:50:28;;;;;;;30.27;17.77;;;4.40;99.90;;;;;;5030165;28;20040;-51
2022/03/05 09:52:55;;;;;;;29.73;15.55;;;4.50;99.90;;;;;;5012662;28;20091;-51
2022/03/05 09:55:20;;;;;;;26.77;15.85;;;4.50;99.90;;;;;;5027795;28;20037;-53
2022/03/05 09:57:46;;;;;;;30.00;17.53;;;4.50;99.90;;;;;;5029736;28;20454;-49
2022/03/05 10:00:12;;;;;;;26.03;15.33;;;4.70;99.90;;;;;;5030138;28;20041;-49
2022/03/05 10:02:38;;;;;;;29.95;16.63;;;4.70;99.90;;;;;;5029893;28;20038;-55
2022/03/05 10:05:26;;;;;;;25.27;16.48;;;4.70;99.90;;;;;;5031077;28;20129;-49
2022/03/05 10:08:20;;;;;;;25.50;16.08;;;4.80;99.90;;;;;;5030966;28;20034;-50
2022/03/05 10:11:01;;;;;;;30.25;16.40;;;4.90;99.90;;;;;;5030837;28;20072;-52
2022/03/05 10:13:28;;;;;;;30.17;16.08;;;5.00;99.90;;;;;;5026360;28;20069;-49
2022/03/05 10:15:57;;;;;;;27.67;14.90;;;5.10;99.90;;;;;;5030959;28;20067;-54
2022/03/05 10:18:40;;;;;;;28.10;16.38;;;5.20;99.90;;;;;;5031419;28;20048;-53
2022/03/05 10:21:09;;;;;;;27.17;15.77;;;5.40;99.50;;;;;;5029986;28;20398;-51
2022/03/05 10:23:36;;;;;;;25.38;16.50;;;5.40;99.50;;;;;;5031007;28;20045;-53
2022/03/05 10:26:05;;;;;;;28.15;15.98;;;5.40;99.20;;;;;;5030793;28;20045;-51
2022/03/05 10:28:31;;;;;;;30.42;16.88;;;5.50;99.20;;;;;;5030591;28;20034;-52
2022/03/05 10:31:07;;;;;;;27.98;16.23;;;5.50;98.60;;;;;;5030718;28;20347;-50
2022/03/05 10:33:41;;;;;;;30.08;17.58;;;5.70;98.90;;;;;;5031175;28;20041;-55
2022/03/05 10:36:09;;;;;;;28.35;17.90;;;5.60;98.90;;;;;;5029928;28;20059;-52
2022/03/05 10:38:53;;;;;;;30.58;17.58;;;5.70;98.80;;;;;;5030430;28;20041;-52
2022/03/05 10:41:38;;;;;;;28.60;16.88;;;5.80;98.80;;;;;;5030471;28;20080;-50
2022/03/05 10:44:06;;;;;;;26.05;16.08;;;5.80;98.30;;;;;;5045904;28;20337;-50
2022/03/05 10:46:43;;;;;;;27.33;16.95;;;5.90;98.80;;;;;;5029411;28;20072;-52
2022/03/05 10:49:14;;;;;;;32.30;18.20;;;6.00;98.40;;;;;;5030498;28;20042;-54
2022/03/05 10:51:40;;;;;;;28.95;16.30;;;6.10;98.70;;;;;;5029903;28;20041;-54
2022/03/05 10:54:06;;;;;;;27.50;16.27;;;6.20;98.30;;;;;;5030567;28;20045;-49
2022/03/05 10:56:34;;;;;;;28.98;17.70;;;6.20;98.40;;;;;;5043290;28;20041;-54
2022/03/05 10:59:06;;;;;;;28.88;18.27;;;6.30;98.10;;;;;;5029829;28;20059;-50
2022/03/05 11:01:34;;;;;;;30.17;18.38;;;6.30;97.60;;;;;;5030098;28;20045;-53
2022/03/05 11:04:00;;;;;;;33.70;19.73;;;6.20;96.60;;;;;;5030392;28;20116;-53
2022/03/05 11:06:27;;;;;;;30.58;18.92;;;6.20;96.70;;;;;;5029643;28;20496;-55
2022/03/05 11:08:53;;;;;;;29.88;18.60;;;6.20;97.10;;;;;;5008238;28;20049;-52
2022/03/05 11:11:20;;;;;;;28.75;17.73;;;6.30;97.00;;;;;;5029380;28;20041;-51
2022/03/05 11:13:47;;;;;;;28.25;16.40;;;6.30;97.80;;;;;;4995729;28;20045;-53
2022/03/05 11:16:13;;;;;;;30.65;19.40;;;6.50;97.20;;;;;;5029671;28;20053;-53
2022/03/05 11:18:39;;;;;;;32.00;18.98;;;6.60;97.40;;;;;;5030125;28;20045;-55
2022/03/05 11:21:07;;;;;;;28.83;17.60;;;6.70;96.50;;;;;;5029846;28;20041;-51
2022/03/05 11:23:34;;;;;;;30.13;16.90;;;6.70;96.30;;;;;;5029968;28;20306;-54
2022/03/05 11:26:00;;;;;;;32.70;18.48;;;6.80;95.70;;;;;;5029360;28;20099;-51
2022/03/05 11:28:37;;;;;;;27.17;18.20;;;6.80;96.20;;;;;;5030353;28;20506;-54
2022/03/05 11:31:17;;;;;;;33.60;19.77;;;6.90;95.50;;;;;;5029729;28;20040;-50
2022/03/05 11:33:44;;;;;;;31.38;17.75;;;7.00;95.80;;;;;;5029991;28;20042;-55
2022/03/05 11:36:27;;;;;;;30.02;17.40;;;7.00;94.80;;;;;;5029356;28;20048;-55
2022/03/05 11:39:18;;;;;;;29.63;17.85;;;7.20;94.80;;;;;;5029643;28;20050;-55
2022/03/05 11:41:50;;;;;;;30.20;19.55;;;7.30;95.00;;;;;;5016539;28;20473;-53
2022/03/05 11:44:17;;;;;;;29.83;18.38;;;7.20;94.40;;;;;;5033564;28;20452;-53
2022/03/05 11:46:43;;;;;;;31.38;18.05;;;7.20;94.30;;;;;;5033444;28;20125;-54
2022/03/05 11:49:11;;;;;;;28.63;17.00;;;7.10;93.90;;;;;;5033447;28;20515;-54
2022/03/05 11:51:57;;;;;;;26.90;17.90;;;7.10;94.00;;;;;;5033850;28;20037;-55
2022/03/05 11:54:24;;;;;;;31.55;18.90;;;7.20;94.70;;;;;;5033484;28;20041;-56
2022/03/05 11:57:02;;;;;;;33.35;19.17;;;7.30;94.40;;;;;;5033490;28;20052;-52
2022/03/05 11:59:29;;;;;;;33.38;18.75;;;7.40;93.90;;;;;;5015496;28;20105;-53
2022/03/05 12:01:55;;;;;;;30.38;17.90;;;7.40;93.50;;;;;;5033653;28;20561;-51
2022/03/05 12:04:28;;;;;;;30.40;18.67;;;7.40;93.60;;;;;;5033178;28;20116;-52
2022/03/05 12:06:59;;;;;;;30.70;18.42;;;7.50;93.80;;;;;;5032855;28;20033;-55
2022/03/05 12:09:52;;;;;;;30.20;18.10;;;7.70;93.70;;;;;;5032971;28;20557;-56
2022/03/05 12:12:18;;;;;;;30.92;19.35;;;7.70;92.60;;;;;;5033539;28;20041;-52
2022/03/05 12:14:58;;;;;;;31.10;18.20;;;7.60;92.10;;;;;;5032943;28;20045;-53
2022/03/05 12:17:25;;;;;;;32.70;17.95;;;7.70;92.90;;;;;;5033074;28;20120;-52
2022/03/05 12:19:53;;;;;;;34.13;18.83;;;7.70;93.20;;;;;;5032885;28;20377;-55
2022/03/05 12:22:19;;;;;;;30.58;19.33;;;7.80;92.50;;;;;;5033075;28;20562;-55
2022/03/05 12:24:45;;;;;;;35.47;20.00;;;7.80;92.20;;;;;;5015133;28;20120;-54
2022/03/05 12:27:15;;;;;;;32.47;18.43;;;7.90;92.30;;;;;;5033291;28;20542;-56
2022/03/05 12:29:51;;;;;;;32.65;18.70;;;7.90;90.70;;;;;;5033245;28;20064;-52
2022/03/05 12:32:18;;;;;;;32.40;18.52;;;8.00;92.10;;;;;;5014924;28;20041;-56
2022/03/05 12:34:44;;;;;;;31.23;18.27;;;8.00;90.70;;;;;;5032219;28;20053;-53
2022/03/05 12:37:10;;;;;;;39.20;21.03;;;8.00;90.80;;;;;;5032441;28;20434;-50
2022/03/05 12:39:45;;;;;;;28.27;17.92;;;8.10;91.60;;;;;;5032856;28;20037;-56